McKees Rocks, Pennsylvania
Current Conditions -  °F | °C
As of 5:51 AM on Friday 24 Oct 2014 (Local Time) from KPIT Reporting Station
Broken Clouds Broken Clouds  
Wind Chill: 40°   Ceiling: 25000
Heat Index: 40°   Visibility: 10mi
Dew Point: 38°   Wind: 3mph
Humidity: 93%   Direction: 250°WSW
Pressure: 30.08"   Gusts: NA
Location:  40.4648°N, 80.1115°W
Report Text: KPIT 240951Z 25003KT 10SM BKN250 04/03 A3008 RMK AO2 SLP196 T00440033
Loading
Personal Weather Stations






























Interactive Weather Map
Tropical Storm Tracking
New forecast layout! Learn more

10-Day Weather Forecast

Advertisements
Track Severe Weather on mobile